• Join FlightAware (Why Join?)
  • Login
  • US Flag 
03:51AM EDT


 

Airport Tracker/Info


-or-


 

Live Flight TrackerFlight Track Log ✈ N227CH ✈ 02-May-2013 ✈ KSHD - KRDU

Flight Track Log - Related Links

Times and Time Zones

All times are in EDT time to prevent confusion due to time zone crossing. See the N227CH flight status page for this flight to view local times or setup timezone preferences in your user account.

Time Position Orientation Groundspeed Altitude Reporting Facility
EDT Latitude Longitude Course Direction KTS MPH feet Rate Location/Type
04:11PM 38.1950 -78.9550 206° Southwest 158 182 6,800  Level Washington Center
04:12PM 38.1550 -78.9692 196° South 153 176 8,200 1,500 Climbing Washington Center
04:13PM 38.1192 -78.9808 194° South 153 176 9,800 1,380 Climbing Washington Center
04:14PM 38.0733 -78.9839 183° South 153 176 11,000 1,200 Climbing Washington Center
04:15PM 38.0275 -78.9819 178° South 161 185 12,300 1,140 Climbing Washington Center
04:16PM 37.9531 -79.0669 206° Southwest  Level FlightAware Approximate
04:16PM 37.9772 -78.9847 182° South 167 192 13,300  Level Washington Center
04:17PM 37.9250 -78.9850 180° South 180 207 14,900 1,260 Climbing Washington Center
04:18PM 37.8772 -78.9856 181° South 180 207 15,900 540 Climbing Washington Center
04:19PM 37.8167 -78.9881 182° South 187 215 16,000  Climbing Washington Center
04:20PM 37.7519 -78.9906 182° South 217 250 16,000  Level Washington Center
04:21PM 37.6831 -78.9900 180° South 239 275 16,000  Level Washington Center
04:22PM 37.6206 -78.9897 180° South 251 289 16,000  Level Washington Center
04:23PM 37.5494 -78.9919 181° South 256 295 16,000  Level Washington Center
04:24PM 37.4786 -78.9914 180° South 256 295 16,000  Level Washington Center
04:25PM 37.4075 -78.9933 181° South 256 295 16,000  Level Washington Center
04:26PM 37.3303 -78.9978 183° South 256 295 16,000  Level Washington Center
04:27PM 37.2594 -78.9972 180° South 256 295 16,000  Level Washington Center
04:28PM 37.1883 -78.9992 181° South 256 295 16,000  Level Washington Center
04:29PM 37.1172 -79.0014 181° South 256 295 16,000 -360 Level Washington Center
04:30PM 37.0464 -79.0033 181° South 256 295 15,400 -900 Descending Washington Center
04:31PM 36.9775 -79.0056 181° South 267 307 14,300 -1,140 Descending Washington Center
04:32PM 36.9003 -79.0072 181° South 279 321 13,200 -1,200 Descending Washington Center
04:33PM 36.8208 -79.0117 183° South 279 321 12,000 -1,620 Descending Washington Center
04:34PM 36.7456 -79.0136 181° South 279 321 10,000 -1,980 Descending Washington Center
04:35PM 36.6664 -79.0125 179° South 274 315 8,100 -1,440 Descending Washington Center
04:36PM 36.5961 -78.9939 168° South 264 304 7,200 -540 Descending Washington Center
04:37PM 36.5297 -78.9756 167° South 244 281 7,100 -60 Descending Washington Center
04:38PM 36.4656 -78.9600 169° South 248 285 7,100  Level Washington Center
04:39PM 36.4056 -78.9392 164° South 238 274 7,100 -540 Level Washington Center
04:41PM 36.3303 -78.9076 169° South  Level FlightAware Approximate
04:44PM 36.1031 -78.9392 North 198 228 4,100  Level Washington Center
04:46PM 36.0248 -78.8864 162° South  Level Estimated
04:46PM 35.9992 -78.9219 North 182 209 4,000  Level Washington Center
04:47PM 35.9628 -78.8819 138° Southeast 174 200 4,000  Level Washington Center
04:48PM 35.9032 -78.7833 180° South  Level FlightAware Approximate
04:48PM 35.9189 -78.8828 181° South 189 217 4,000  Level Washington Center
04:49PM 35.8776 -78.7875 North  Level Estimated
04:49PM 35.8783 -78.9194 216° Southwest 171 197 4,000  Level Washington Center
04:50PM 35.8503 -78.9514 223° Southwest 159 183 4,000  Level Washington Center
04:51PM 35.8156 -78.9961 226° Southwest 173 199 4,000  Level Washington Center
04:52PM 35.7831 -79.0408 228° Southwest 175 201 4,000 -420 Level Washington Center
04:53PM 35.8776 -78.7875 North  Level Estimated
04:53PM 35.7469 -79.0650 209° Southwest 159 183 3,200  Level Washington Center
04:54PM 35.8776 -78.7875 North  Level Estimated
04:55PM 35.7106 -79.0197 135° Southeast 147 169 3,100  Level Washington Center
04:55PM 35.7261 -78.9872 59° Northeast 155 178 3,100  Level Washington Center
04:56PM 35.7586 -78.9478 45° Northeast 159 183 3,100 -180 Level Washington Center
04:57PM 35.7908 -78.9081 45° Northeast 147 169 2,800 -300 Descending Washington Center